sensor_id;sensor_type;location;lat;lon;timestamp;temperature;humidity
32187;DHT22;18686;53.084;8.872;2023-06-22T00:00:34;17.30;99.90
32187;DHT22;18686;53.084;8.872;2023-06-22T00:03:03;17.40;99.90
32187;DHT22;18686;53.084;8.872;2023-06-22T00:05:31;17.30;99.90
32187;DHT22;18686;53.084;8.872;2023-06-22T00:08:03;17.30;99.90
32187;DHT22;18686;53.084;8.872;2023-06-22T00:10:32;17.30;99.90
32187;DHT22;18686;53.084;8.872;2023-06-22T00:13:01;17.30;99.90
32187;DHT22;18686;53.084;8.872;2023-06-22T00:15:29;17.30;99.90
32187;DHT22;18686;53.084;8.872;2023-06-22T00:17:58;17.30;99.90
32187;DHT22;18686;53.084;8.872;2023-06-22T00:20:26;17.30;99.90
32187;DHT22;18686;53.084;8.872;2023-06-22T00:22:57;17.20;99.90
32187;DHT22;18686;53.084;8.872;2023-06-22T00:25:27;17.20;99.90
32187;DHT22;18686;53.084;8.872;2023-06-22T00:27:55;17.20;99.90
32187;DHT22;18686;53.084;8.872;2023-06-22T00:30:23;17.30;99.90
32187;DHT22;18686;53.084;8.872;2023-06-22T00:32:52;17.30;99.90
32187;DHT22;18686;53.084;8.872;2023-06-22T00:35:21;17.30;99.90
32187;DHT22;18686;53.084;8.872;2023-06-22T00:37:49;17.30;99.90
32187;DHT22;18686;53.084;8.872;2023-06-22T00:40:20;17.30;99.90
32187;DHT22;18686;53.084;8.872;2023-06-22T00:42:50;17.30;99.90
32187;DHT22;18686;53.084;8.872;2023-06-22T00:45:18;17.30;99.90
32187;DHT22;18686;53.084;8.872;2023-06-22T00:47:46;17.30;99.90
32187;DHT22;18686;53.084;8.872;2023-06-22T00:50:18;17.30;99.90
32187;DHT22;18686;53.084;8.872;2023-06-22T00:52:49;17.30;99.90
32187;DHT22;18686;53.084;8.872;2023-06-22T00:55:19;17.30;99.90
32187;DHT22;18686;53.084;8.872;2023-06-22T00:57:48;17.30;99.90
32187;DHT22;18686;53.084;8.872;2023-06-22T01:00:18;17.30;99.90
32187;DHT22;18686;53.084;8.872;2023-06-22T01:02:47;17.30;99.90
32187;DHT22;18686;53.084;8.872;2023-06-22T01:05:19;17.30;99.90
32187;DHT22;18686;53.084;8.872;2023-06-22T01:08:04;17.30;99.90
32187;DHT22;18686;53.084;8.872;2023-06-22T01:10:38;17.30;99.90
32187;DHT22;18686;53.084;8.872;2023-06-22T01:13:15;17.30;99.90
32187;DHT22;18686;53.084;8.872;2023-06-22T01:15:48;17.30;99.90
32187;DHT22;18686;53.084;8.872;2023-06-22T01:18:18;17.20;99.90
32187;DHT22;18686;53.084;8.872;2023-06-22T01:20:47;17.20;99.90
32187;DHT22;18686;53.084;8.872;2023-06-22T01:23:25;17.20;99.90
32187;DHT22;18686;53.084;8.872;2023-06-22T01:26:02;17.10;99.90
32187;DHT22;18686;53.084;8.872;2023-06-22T01:28:46;17.10;99.90
32187;DHT22;18686;53.084;8.872;2023-06-22T01:31:16;17.10;99.90
32187;DHT22;18686;53.084;8.872;2023-06-22T01:33:49;17.10;99.90
32187;DHT22;18686;53.084;8.872;2023-06-22T01:36:19;17.10;99.90
32187;DHT22;18686;53.084;8.872;2023-06-22T01:38:48;17.00;99.90
32187;DHT22;18686;53.084;8.872;2023-06-22T01:41:19;17.10;99.90
32187;DHT22;18686;53.084;8.872;2023-06-22T01:43:49;17.10;99.90
32187;DHT22;18686;53.084;8.872;2023-06-22T01:46:20;17.10;99.90
32187;DHT22;18686;53.084;8.872;2023-06-22T01:48:49;17.10;99.90
32187;DHT22;18686;53.084;8.872;2023-06-22T01:51:18;17.00;99.90
32187;DHT22;18686;53.084;8.872;2023-06-22T01:53:47;17.00;99.90
32187;DHT22;18686;53.084;8.872;2023-06-22T01:56:18;17.00;99.90
32187;DHT22;18686;53.084;8.872;2023-06-22T01:58:53;17.00;99.90
32187;DHT22;18686;53.084;8.872;2023-06-22T02:01:26;17.00;99.90
32187;DHT22;18686;53.084;8.872;2023-06-22T02:04:02;17.00;99.90
32187;DHT22;18686;53.084;8.872;2023-06-22T02:06:36;17.00;99.90
32187;DHT22;18686;53.084;8.872;2023-06-22T02:09:09;17.00;99.90
32187;DHT22;18686;53.084;8.872;2023-06-22T02:11:41;16.90;99.90
32187;DHT22;18686;53.084;8.872;2023-06-22T02:14:12;16.90;99.90
32187;DHT22;18686;53.084;8.872;2023-06-22T02:16:42;16.90;99.90
32187;DHT22;18686;53.084;8.872;2023-06-22T02:19:10;16.80;99.90
32187;DHT22;18686;53.084;8.872;2023-06-22T02:21:38;16.80;99.90
32187;DHT22;18686;53.084;8.872;2023-06-22T02:24:07;16.80;99.90
32187;DHT22;18686;53.084;8.872;2023-06-22T02:26:35;16.70;99.90
32187;DHT22;18686;53.084;8.872;2023-06-22T02:29:05;16.70;99.90
32187;DHT22;18686;53.084;8.872;2023-06-22T02:31:35;16.70;99.90
32187;DHT22;18686;53.084;8.872;2023-06-22T02:34:03;16.70;99.90
32187;DHT22;18686;53.084;8.872;2023-06-22T02:36:32;16.60;99.90
32187;DHT22;18686;53.084;8.872;2023-06-22T02:39:00;16.60;99.90
32187;DHT22;18686;53.084;8.872;2023-06-22T02:41:30;16.50;99.90
32187;DHT22;18686;53.084;8.872;2023-06-22T02:43:59;16.50;99.90
32187;DHT22;18686;53.084;8.872;2023-06-22T02:46:27;16.50;99.90
32187;DHT22;18686;53.084;8.872;2023-06-22T02:48:56;16.50;99.90
32187;DHT22;18686;53.084;8.872;2023-06-22T02:51:25;16.50;99.90
32187;DHT22;18686;53.084;8.872;2023-06-22T02:53:53;16.50;99.90
32187;DHT22;18686;53.084;8.872;2023-06-22T02:56:28;16.50;99.90
32187;DHT22;18686;53.084;8.872;2023-06-22T02:58:59;16.50;99.90
32187;DHT22;18686;53.084;8.872;2023-06-22T03:01:37;16.60;99.90
32187;DHT22;18686;53.084;8.872;2023-06-22T03:04:25;16.60;99.90
32187;DHT22;18686;53.084;8.872;2023-06-22T03:06:53;16.60;99.90
32187;DHT22;18686;53.084;8.872;2023-06-22T03:09:21;16.60;99.90
32187;DHT22;18686;53.084;8.872;2023-06-22T03:11:50;16.60;99.90
32187;DHT22;18686;53.084;8.872;2023-06-22T03:14:20;16.60;99.90
32187;DHT22;18686;53.084;8.872;2023-06-22T03:16:51;16.60;99.90
32187;DHT22;18686;53.084;8.872;2023-06-22T03:19:19;16.60;99.90
32187;DHT22;18686;53.084;8.872;2023-06-22T03:21:50;16.60;99.90
32187;DHT22;18686;53.084;8.872;2023-06-22T03:24:18;16.70;99.90
32187;DHT22;18686;53.084;8.872;2023-06-22T03:26:47;16.70;99.90
32187;DHT22;18686;53.084;8.872;2023-06-22T03:29:15;16.80;99.90
32187;DHT22;18686;53.084;8.872;2023-06-22T03:31:45;16.80;99.90
32187;DHT22;18686;53.084;8.872;2023-06-22T03:34:13;16.80;99.90
32187;DHT22;18686;53.084;8.872;2023-06-22T03:36:43;16.80;99.90
32187;DHT22;18686;53.084;8.872;2023-06-22T03:39:13;16.80;99.90
32187;DHT22;18686;53.084;8.872;2023-06-22T03:42:00;16.80;99.90
32187;DHT22;18686;53.084;8.872;2023-06-22T03:44:28;16.80;99.90
32187;DHT22;18686;53.084;8.872;2023-06-22T03:46:56;16.90;99.90
32187;DHT22;18686;53.084;8.872;2023-06-22T03:49:24;16.90;99.90
32187;DHT22;18686;53.084;8.872;2023-06-22T03:51:52;16.90;99.90
32187;DHT22;18686;53.084;8.872;2023-06-22T03:54:22;16.90;99.90
32187;DHT22;18686;53.084;8.872;2023-06-22T03:56:50;17.00;99.90
32187;DHT22;18686;53.084;8.872;2023-06-22T03:59:19;17.00;99.90
32187;DHT22;18686;53.084;8.872;2023-06-22T04:01:47;17.00;99.90
32187;DHT22;18686;53.084;8.872;2023-06-22T04:04:15;17.00;99.90
32187;DHT22;18686;53.084;8.872;2023-06-22T04:06:44;17.00;99.90
32187;DHT22;18686;53.084;8.872;2023-06-22T04:09:12;17.00;99.90
32187;DHT22;18686;53.084;8.872;2023-06-22T04:11:41;17.10;99.90
32187;DHT22;18686;53.084;8.872;2023-06-22T04:14:10;17.10;99.90
32187;DHT22;18686;53.084;8.872;2023-06-22T04:16:38;17.10;99.90
32187;DHT22;18686;53.084;8.872;2023-06-22T04:19:06;17.20;99.90
32187;DHT22;18686;53.084;8.872;2023-06-22T04:21:40;17.30;99.90
32187;DHT22;18686;53.084;8.872;2023-06-22T04:24:08;17.30;99.90
32187;DHT22;18686;53.084;8.872;2023-06-22T04:26:36;17.30;99.90
32187;DHT22;18686;53.084;8.872;2023-06-22T04:29:06;17.40;99.90
32187;DHT22;18686;53.084;8.872;2023-06-22T04:31:35;17.40;99.90
32187;DHT22;18686;53.084;8.872;2023-06-22T04:34:04;17.50;99.90
32187;DHT22;18686;53.084;8.872;2023-06-22T04:36:34;17.60;99.90
32187;DHT22;18686;53.084;8.872;2023-06-22T04:39:07;17.60;99.90
32187;DHT22;18686;53.084;8.872;2023-06-22T04:41:37;17.70;99.90
32187;DHT22;18686;53.084;8.872;2023-06-22T04:44:13;17.70;99.90
32187;DHT22;18686;53.084;8.872;2023-06-22T04:46:52;17.80;99.90
32187;DHT22;18686;53.084;8.872;2023-06-22T04:49:27;17.90;99.90
32187;DHT22;18686;53.084;8.872;2023-06-22T04:52:00;17.90;99.90
32187;DHT22;18686;53.084;8.872;2023-06-22T04:54:29;18.00;99.90
32187;DHT22;18686;53.084;8.872;2023-06-22T04:57:00;18.10;99.90
32187;DHT22;18686;53.084;8.872;2023-06-22T04:59:31;18.20;99.90
32187;DHT22;18686;53.084;8.872;2023-06-22T05:02:01;18.30;99.90
32187;DHT22;18686;53.084;8.872;2023-06-22T05:04:30;18.40;99.90
32187;DHT22;18686;53.084;8.872;2023-06-22T05:07:00;18.40;99.90
32187;DHT22;18686;53.084;8.872;2023-06-22T05:09:28;18.50;99.90
32187;DHT22;18686;53.084;8.872;2023-06-22T05:11:57;18.60;99.90
32187;DHT22;18686;53.084;8.872;2023-06-22T05:14:26;18.60;99.90
32187;DHT22;18686;53.084;8.872;2023-06-22T05:16:56;18.70;99.90
32187;DHT22;18686;53.084;8.872;2023-06-22T05:19:26;18.70;99.90
32187;DHT22;18686;53.084;8.872;2023-06-22T05:21:58;18.90;99.90
32187;DHT22;18686;53.084;8.872;2023-06-22T05:24:26;18.90;99.90
32187;DHT22;18686;53.084;8.872;2023-06-22T05:26:54;19.00;99.90
32187;DHT22;18686;53.084;8.872;2023-06-22T05:29:23;19.10;99.90
32187;DHT22;18686;53.084;8.872;2023-06-22T05:31:51;19.30;99.90
32187;DHT22;18686;53.084;8.872;2023-06-22T05:34:20;19.40;99.90
32187;DHT22;18686;53.084;8.872;2023-06-22T05:36:49;19.60;99.90
32187;DHT22;18686;53.084;8.872;2023-06-22T05:39:17;19.70;99.90
32187;DHT22;18686;53.084;8.872;2023-06-22T05:41:46;19.80;99.90
32187;DHT22;18686;53.084;8.872;2023-06-22T05:44:15;20.00;99.90
32187;DHT22;18686;53.084;8.872;2023-06-22T05:46:44;20.10;99.90
32187;DHT22;18686;53.084;8.872;2023-06-22T05:49:14;20.30;99.90
32187;DHT22;18686;53.084;8.872;2023-06-22T05:51:43;20.50;99.90
32187;DHT22;18686;53.084;8.872;2023-06-22T05:54:12;20.60;99.90
32187;DHT22;18686;53.084;8.872;2023-06-22T05:56:42;20.80;99.90
32187;DHT22;18686;53.084;8.872;2023-06-22T05:59:10;21.10;99.90
32187;DHT22;18686;53.084;8.872;2023-06-22T06:01:39;21.30;99.90
32187;DHT22;18686;53.084;8.872;2023-06-22T06:04:07;21.60;99.90
32187;DHT22;18686;53.084;8.872;2023-06-22T06:06:36;21.90;99.90
32187;DHT22;18686;53.084;8.872;2023-06-22T06:09:06;22.20;99.90
32187;DHT22;18686;53.084;8.872;2023-06-22T06:11:34;22.60;99.90
32187;DHT22;18686;53.084;8.872;2023-06-22T06:14:02;22.90;99.90
32187;DHT22;18686;53.084;8.872;2023-06-22T06:16:31;23.10;99.90
32187;DHT22;18686;53.084;8.872;2023-06-22T06:18:59;23.40;99.90
32187;DHT22;18686;53.084;8.872;2023-06-22T06:21:27;23.40;99.90
32187;DHT22;18686;53.084;8.872;2023-06-22T06:23:57;23.50;99.90
32187;DHT22;18686;53.084;8.872;2023-06-22T06:26:27;23.40;99.90
32187;DHT22;18686;53.084;8.872;2023-06-22T06:28:57;23.40;99.90
32187;DHT22;18686;53.084;8.872;2023-06-22T06:31:25;23.30;99.90
32187;DHT22;18686;53.084;8.872;2023-06-22T06:33:54;23.20;99.90
32187;DHT22;18686;53.084;8.872;2023-06-22T06:36:23;23.10;99.90
32187;DHT22;18686;53.084;8.872;2023-06-22T06:38:51;23.10;99.90
32187;DHT22;18686;53.084;8.872;2023-06-22T06:41:19;23.20;99.90
32187;DHT22;18686;53.084;8.872;2023-06-22T06:43:49;23.30;99.90
32187;DHT22;18686;53.084;8.872;2023-06-22T06:46:19;23.30;99.90
32187;DHT22;18686;53.084;8.872;2023-06-22T06:48:47;23.40;99.90
32187;DHT22;18686;53.084;8.872;2023-06-22T06:51:15;23.60;99.90
32187;DHT22;18686;53.084;8.872;2023-06-22T06:53:44;23.80;99.90
32187;DHT22;18686;53.084;8.872;2023-06-22T06:56:12;24.10;99.90
32187;DHT22;18686;53.084;8.872;2023-06-22T06:58:41;24.30;99.30
32187;DHT22;18686;53.084;8.872;2023-06-22T07:01:13;24.50;98.00
32187;DHT22;18686;53.084;8.872;2023-06-22T07:03:41;24.70;97.30
32187;DHT22;18686;53.084;8.872;2023-06-22T07:06:10;25.00;96.20
32187;DHT22;18686;53.084;8.872;2023-06-22T07:08:38;25.30;95.20
32187;DHT22;18686;53.084;8.872;2023-06-22T07:11:07;25.50;94.70
32187;DHT22;18686;53.084;8.872;2023-06-22T07:13:35;25.80;93.60
32187;DHT22;18686;53.084;8.872;2023-06-22T07:16:04;26.00;92.50
32187;DHT22;18686;53.084;8.872;2023-06-22T07:18:33;26.30;91.30
32187;DHT22;18686;53.084;8.872;2023-06-22T07:21:01;26.50;90.00
32187;DHT22;18686;53.084;8.872;2023-06-22T07:23:30;26.70;86.50
32187;DHT22;18686;53.084;8.872;2023-06-22T07:25:59;26.90;84.20
32187;DHT22;18686;53.084;8.872;2023-06-22T07:28:28;27.20;82.50
32187;DHT22;18686;53.084;8.872;2023-06-22T07:30:58;27.30;79.50
32187;DHT22;18686;53.084;8.872;2023-06-22T07:33:26;27.60;76.90
32187;DHT22;18686;53.084;8.872;2023-06-22T07:35:56;27.70;76.20
32187;DHT22;18686;53.084;8.872;2023-06-22T07:38:24;27.80;74.20
32187;DHT22;18686;53.084;8.872;2023-06-22T07:40:52;28.00;72.00
32187;DHT22;18686;53.084;8.872;2023-06-22T07:43:21;28.20;70.90
32187;DHT22;18686;53.084;8.872;2023-06-22T07:45:50;28.30;70.10
32187;DHT22;18686;53.084;8.872;2023-06-22T07:48:20;28.50;67.50
32187;DHT22;18686;53.084;8.872;2023-06-22T07:50:49;28.60;67.30
32187;DHT22;18686;53.084;8.872;2023-06-22T07:53:20;28.80;66.00
32187;DHT22;18686;53.084;8.872;2023-06-22T07:55:48;29.00;65.40
32187;DHT22;18686;53.084;8.872;2023-06-22T07:58:16;29.20;64.30
32187;DHT22;18686;53.084;8.872;2023-06-22T08:00:46;29.50;63.20
32187;DHT22;18686;53.084;8.872;2023-06-22T08:03:15;29.70;60.90
32187;DHT22;18686;53.084;8.872;2023-06-22T08:05:44;30.00;60.00
32187;DHT22;18686;53.084;8.872;2023-06-22T08:08:12;30.30;59.00
32187;DHT22;18686;53.084;8.872;2023-06-22T08:10:42;30.50;56.50
32187;DHT22;18686;53.084;8.872;2023-06-22T08:13:11;30.80;55.70
32187;DHT22;18686;53.084;8.872;2023-06-22T08:15:39;31.10;55.50
32187;DHT22;18686;53.084;8.872;2023-06-22T08:18:07;31.40;55.10
32187;DHT22;18686;53.084;8.872;2023-06-22T08:20:35;31.70;54.00
32187;DHT22;18686;53.084;8.872;2023-06-22T08:23:04;31.90;53.20
32187;DHT22;18686;53.084;8.872;2023-06-22T08:25:33;32.00;51.10
32187;DHT22;18686;53.084;8.872;2023-06-22T08:28:03;32.10;48.00
32187;DHT22;18686;53.084;8.872;2023-06-22T08:30:32;32.00;49.00
32187;DHT22;18686;53.084;8.872;2023-06-22T08:33:00;32.20;49.00
32187;DHT22;18686;53.084;8.872;2023-06-22T08:35:28;32.40;48.90
32187;DHT22;18686;53.084;8.872;2023-06-22T08:37:57;32.70;47.90
32187;DHT22;18686;53.084;8.872;2023-06-22T08:40:26;32.90;47.40
32187;DHT22;18686;53.084;8.872;2023-06-22T08:42:56;32.90;47.00
32187;DHT22;18686;53.084;8.872;2023-06-22T08:45:26;32.70;46.80
32187;DHT22;18686;53.084;8.872;2023-06-22T08:47:57;32.40;46.10
32187;DHT22;18686;53.084;8.872;2023-06-22T08:50:25;32.10;46.60
32187;DHT22;18686;53.084;8.872;2023-06-22T08:52:54;31.80;46.90
32187;DHT22;18686;53.084;8.872;2023-06-22T08:55:25;31.80;47.60
32187;DHT22;18686;53.084;8.872;2023-06-22T08:57:53;31.90;47.30
32187;DHT22;18686;53.084;8.872;2023-06-22T09:00:21;32.10;46.90
32187;DHT22;18686;53.084;8.872;2023-06-22T09:02:51;32.30;46.30
32187;DHT22;18686;53.084;8.872;2023-06-22T09:05:20;32.60;45.20
32187;DHT22;18686;53.084;8.872;2023-06-22T09:07:49;33.10;45.20
32187;DHT22;18686;53.084;8.872;2023-06-22T09:10:17;33.60;44.10
32187;DHT22;18686;53.084;8.872;2023-06-22T09:12:45;34.00;43.30
32187;DHT22;18686;53.084;8.872;2023-06-22T09:15:13;34.60;42.20
32187;DHT22;18686;53.084;8.872;2023-06-22T09:17:45;35.00;41.20
32187;DHT22;18686;53.084;8.872;2023-06-22T09:20:16;35.40;40.80
32187;DHT22;18686;53.084;8.872;2023-06-22T09:22:44;35.80;40.30
32187;DHT22;18686;53.084;8.872;2023-06-22T09:25:13;36.20;40.80
32187;DHT22;18686;53.084;8.872;2023-06-22T09:27:41;36.30;40.10
32187;DHT22;18686;53.084;8.872;2023-06-22T09:30:10;36.50;39.70
32187;DHT22;18686;53.084;8.872;2023-06-22T09:32:38;36.60;39.80
32187;DHT22;18686;53.084;8.872;2023-06-22T09:35:07;36.80;39.30
32187;DHT22;18686;53.084;8.872;2023-06-22T09:37:45;37.10;39.10
32187;DHT22;18686;53.084;8.872;2023-06-22T09:40:13;37.50;38.80
32187;DHT22;18686;53.084;8.872;2023-06-22T09:42:44;37.80;38.80
32187;DHT22;18686;53.084;8.872;2023-06-22T09:45:12;38.20;38.20
32187;DHT22;18686;53.084;8.872;2023-06-22T09:47:40;38.80;37.60
32187;DHT22;18686;53.084;8.872;2023-06-22T09:50:10;39.20;36.50
32187;DHT22;18686;53.084;8.872;2023-06-22T09:52:38;39.30;36.20
32187;DHT22;18686;53.084;8.872;2023-06-22T09:55:16;39.30;35.90
32187;DHT22;18686;53.084;8.872;2023-06-22T09:57:44;39.50;35.60
32187;DHT22;18686;53.084;8.872;2023-06-22T10:00:13;39.70;36.00
32187;DHT22;18686;53.084;8.872;2023-06-22T10:02:42;40.10;35.70
32187;DHT22;18686;53.084;8.872;2023-06-22T10:05:11;40.70;35.10
32187;DHT22;18686;53.084;8.872;2023-06-22T10:07:40;41.10;34.70
32187;DHT22;18686;53.084;8.872;2023-06-22T10:10:11;41.40;34.00
32187;DHT22;18686;53.084;8.872;2023-06-22T10:12:45;41.80;33.50
32187;DHT22;18686;53.084;8.872;2023-06-22T10:15:13;42.40;33.20
32187;DHT22;18686;53.084;8.872;2023-06-22T10:17:42;43.00;32.40
32187;DHT22;18686;53.084;8.872;2023-06-22T10:20:11;43.40;32.00
32187;DHT22;18686;53.084;8.872;2023-06-22T10:22:40;43.90;31.50
32187;DHT22;18686;53.084;8.872;2023-06-22T10:25:09;43.70;31.40
32187;DHT22;18686;53.084;8.872;2023-06-22T10:27:38;43.40;31.30
32187;DHT22;18686;53.084;8.872;2023-06-22T10:30:10;42.90;32.10
32187;DHT22;18686;53.084;8.872;2023-06-22T10:32:40;42.90;32.60
32187;DHT22;18686;53.084;8.872;2023-06-22T10:35:10;42.90;32.80
32187;DHT22;18686;53.084;8.872;2023-06-22T10:37:41;43.20;32.40
32187;DHT22;18686;53.084;8.872;2023-06-22T10:40:11;44.30;32.00
32187;DHT22;18686;53.084;8.872;2023-06-22T10:42:40;45.40;30.80
32187;DHT22;18686;53.084;8.872;2023-06-22T10:45:10;46.50;30.10
32187;DHT22;18686;53.084;8.872;2023-06-22T10:47:38;46.90;29.40
32187;DHT22;18686;53.084;8.872;2023-06-22T10:50:09;46.90;28.90
32187;DHT22;18686;53.084;8.872;2023-06-22T10:52:38;46.80;29.10
32187;DHT22;18686;53.084;8.872;2023-06-22T10:55:07;46.60;28.90
32187;DHT22;18686;53.084;8.872;2023-06-22T10:57:35;46.00;29.40
32187;DHT22;18686;53.084;8.872;2023-06-22T11:00:07;45.30;29.50
32187;DHT22;18686;53.084;8.872;2023-06-22T11:02:39;44.70;29.70
32187;DHT22;18686;53.084;8.872;2023-06-22T11:05:08;43.80;30.50
32187;DHT22;18686;53.084;8.872;2023-06-22T11:07:37;42.90;30.90
32187;DHT22;18686;53.084;8.872;2023-06-22T11:10:11;42.30;31.20
32187;DHT22;18686;53.084;8.872;2023-06-22T11:12:40;41.90;31.70
32187;DHT22;18686;53.084;8.872;2023-06-22T11:15:09;41.70;31.80
32187;DHT22;18686;53.084;8.872;2023-06-22T11:17:39;41.90;31.80
32187;DHT22;18686;53.084;8.872;2023-06-22T11:20:08;43.20;31.20
32187;DHT22;18686;53.084;8.872;2023-06-22T11:22:38;44.80;30.00
32187;DHT22;18686;53.084;8.872;2023-06-22T11:25:07;45.20;29.60
32187;DHT22;18686;53.084;8.872;2023-06-22T11:27:35;45.10;29.50
32187;DHT22;18686;53.084;8.872;2023-06-22T11:30:05;44.90;29.90
32187;DHT22;18686;53.084;8.872;2023-06-22T11:32:33;44.80;29.80
32187;DHT22;18686;53.084;8.872;2023-06-22T11:35:04;44.80;29.70
32187;DHT22;18686;53.084;8.872;2023-06-22T11:37:32;45.20;29.80
32187;DHT22;18686;53.084;8.872;2023-06-22T11:40:00;46.50;29.80
32187;DHT22;18686;53.084;8.872;2023-06-22T11:42:34;48.30;29.10
32187;DHT22;18686;53.084;8.872;2023-06-22T11:45:04;50.00;28.60
32187;DHT22;18686;53.084;8.872;2023-06-22T11:47:32;51.60;27.60
32187;DHT22;18686;53.084;8.872;2023-06-22T11:50:01;53.20;26.90
32187;DHT22;18686;53.084;8.872;2023-06-22T11:52:30;54.30;26.30
32187;DHT22;18686;53.084;8.872;2023-06-22T11:54:58;55.30;25.90
32187;DHT22;18686;53.084;8.872;2023-06-22T11:57:30;55.90;25.50
32187;DHT22;18686;53.084;8.872;2023-06-22T11:59:58;56.60;25.40
32187;DHT22;18686;53.084;8.872;2023-06-22T12:02:26;56.90;24.90
32187;DHT22;18686;53.084;8.872;2023-06-22T12:04:54;57.20;24.80
32187;DHT22;18686;53.084;8.872;2023-06-22T12:07:25;57.70;24.00
32187;DHT22;18686;53.084;8.872;2023-06-22T12:09:54;58.00;24.00
32187;DHT22;18686;53.084;8.872;2023-06-22T12:12:23;58.80;24.20
32187;DHT22;18686;53.084;8.872;2023-06-22T12:14:51;58.80;24.00
32187;DHT22;18686;53.084;8.872;2023-06-22T12:17:19;57.90;24.10
32187;DHT22;18686;53.084;8.872;2023-06-22T12:19:47;56.10;24.60
32187;DHT22;18686;53.084;8.872;2023-06-22T12:22:16;53.80;25.00
32187;DHT22;18686;53.084;8.872;2023-06-22T12:24:45;51.80;25.90
32187;DHT22;18686;53.084;8.872;2023-06-22T12:27:16;50.20;27.30
32187;DHT22;18686;53.084;8.872;2023-06-22T12:29:45;48.60;27.20
32187;DHT22;18686;53.084;8.872;2023-06-22T12:32:14;47.20;27.60
32187;DHT22;18686;53.084;8.872;2023-06-22T12:34:43;46.40;28.40
32187;DHT22;18686;53.084;8.872;2023-06-22T12:37:11;45.70;28.60
32187;DHT22;18686;53.084;8.872;2023-06-22T12:39:40;45.20;29.40
32187;DHT22;18686;53.084;8.872;2023-06-22T12:42:09;44.90;29.90
32187;DHT22;18686;53.084;8.872;2023-06-22T12:44:40;44.50;29.90
32187;DHT22;18686;53.084;8.872;2023-06-22T12:47:09;44.10;30.40
32187;DHT22;18686;53.084;8.872;2023-06-22T12:49:38;43.80;31.30
32187;DHT22;18686;53.084;8.872;2023-06-22T12:52:09;43.20;31.90
32187;DHT22;18686;53.084;8.872;2023-06-22T12:54:37;42.10;31.80
32187;DHT22;18686;53.084;8.872;2023-06-22T12:57:21;40.90;32.20
32187;DHT22;18686;53.084;8.872;2023-06-22T12:59:51;39.70;33.20
32187;DHT22;18686;53.084;8.872;2023-06-22T13:02:19;38.70;34.70
32187;DHT22;18686;53.084;8.872;2023-06-22T13:04:48;37.90;35.60
32187;DHT22;18686;53.084;8.872;2023-06-22T13:07:16;37.20;36.50
32187;DHT22;18686;53.084;8.872;2023-06-22T13:09:50;36.50;36.70
32187;DHT22;18686;53.084;8.872;2023-06-22T13:12:20;36.10;37.50
32187;DHT22;18686;53.084;8.872;2023-06-22T13:14:48;35.70;37.80
32187;DHT22;18686;53.084;8.872;2023-06-22T13:17:18;35.40;37.90
32187;DHT22;18686;53.084;8.872;2023-06-22T13:19:46;35.10;38.60
32187;DHT22;18686;53.084;8.872;2023-06-22T13:22:29;34.70;39.30
32187;DHT22;18686;53.084;8.872;2023-06-22T13:24:58;34.50;40.40
32187;DHT22;18686;53.084;8.872;2023-06-22T13:27:26;34.30;40.50
32187;DHT22;18686;53.084;8.872;2023-06-22T13:29:55;33.90;39.80
32187;DHT22;18686;53.084;8.872;2023-06-22T13:32:24;33.80;39.50
32187;DHT22;18686;53.084;8.872;2023-06-22T13:34:54;33.40;39.30
32187;DHT22;18686;53.084;8.872;2023-06-22T13:37:22;33.10;39.80
32187;DHT22;18686;53.084;8.872;2023-06-22T13:39:50;32.80;39.80
32187;DHT22;18686;53.084;8.872;2023-06-22T13:42:19;32.50;40.30
32187;DHT22;18686;53.084;8.872;2023-06-22T13:44:47;32.20;40.80
32187;DHT22;18686;53.084;8.872;2023-06-22T13:47:15;32.00;41.40
32187;DHT22;18686;53.084;8.872;2023-06-22T13:49:45;31.70;41.70
32187;DHT22;18686;53.084;8.872;2023-06-22T13:52:13;31.50;41.90
32187;DHT22;18686;53.084;8.872;2023-06-22T13:54:41;31.30;42.50
32187;DHT22;18686;53.084;8.872;2023-06-22T13:57:09;31.10;42.60
32187;DHT22;18686;53.084;8.872;2023-06-22T13:59:37;30.80;43.00
32187;DHT22;18686;53.084;8.872;2023-06-22T14:02:06;30.60;43.50
32187;DHT22;18686;53.084;8.872;2023-06-22T14:04:34;30.50;44.50
32187;DHT22;18686;53.084;8.872;2023-06-22T14:07:04;30.30;45.20
32187;DHT22;18686;53.084;8.872;2023-06-22T14:09:35;30.10;45.40
32187;DHT22;18686;53.084;8.872;2023-06-22T14:12:04;29.90;45.60
32187;DHT22;18686;53.084;8.872;2023-06-22T14:14:33;29.80;45.80
32187;DHT22;18686;53.084;8.872;2023-06-22T14:17:01;29.60;46.10
32187;DHT22;18686;53.084;8.872;2023-06-22T14:19:29;29.50;46.60
32187;DHT22;18686;53.084;8.872;2023-06-22T14:21:58;29.40;47.20
32187;DHT22;18686;53.084;8.872;2023-06-22T14:24:27;29.30;48.00
32187;DHT22;18686;53.084;8.872;2023-06-22T14:26:57;29.10;48.40
32187;DHT22;18686;53.084;8.872;2023-06-22T14:29:25;29.00;48.80
32187;DHT22;18686;53.084;8.872;2023-06-22T14:31:53;28.90;49.20
32187;DHT22;18686;53.084;8.872;2023-06-22T14:34:22;28.80;49.80
32187;DHT22;18686;53.084;8.872;2023-06-22T14:36:50;28.60;50.50
32187;DHT22;18686;53.084;8.872;2023-06-22T14:39:18;28.60;51.20
32187;DHT22;18686;53.084;8.872;2023-06-22T14:41:49;28.50;51.70
32187;DHT22;18686;53.084;8.872;2023-06-22T14:44:17;28.40;51.90
32187;DHT22;18686;53.084;8.872;2023-06-22T14:46:45;28.30;52.60
32187;DHT22;18686;53.084;8.872;2023-06-22T14:49:13;28.20;53.20
32187;DHT22;18686;53.084;8.872;2023-06-22T14:51:41;28.20;53.70
32187;DHT22;18686;53.084;8.872;2023-06-22T14:54:10;28.10;54.60
32187;DHT22;18686;53.084;8.872;2023-06-22T14:56:38;28.00;55.20
32187;DHT22;18686;53.084;8.872;2023-06-22T14:59:08;27.90;55.30
32187;DHT22;18686;53.084;8.872;2023-06-22T15:01:36;27.80;55.70
32187;DHT22;18686;53.084;8.872;2023-06-22T15:04:07;27.70;57.10
32187;DHT22;18686;53.084;8.872;2023-06-22T15:06:36;27.60;57.10
32187;DHT22;18686;53.084;8.872;2023-06-22T15:09:04;27.50;59.10
32187;DHT22;18686;53.084;8.872;2023-06-22T15:11:32;27.40;59.00
32187;DHT22;18686;53.084;8.872;2023-06-22T15:14:00;27.30;59.30
32187;DHT22;18686;53.084;8.872;2023-06-22T15:16:30;27.20;59.90
32187;DHT22;18686;53.084;8.872;2023-06-22T15:18:58;27.10;60.60
32187;DHT22;18686;53.084;8.872;2023-06-22T15:21:27;27.10;62.40
32187;DHT22;18686;53.084;8.872;2023-06-22T15:23:55;27.00;63.50
32187;DHT22;18686;53.084;8.872;2023-06-22T15:26:23;26.90;64.90
32187;DHT22;18686;53.084;8.872;2023-06-22T15:28:51;26.80;66.40
32187;DHT22;18686;53.084;8.872;2023-06-22T15:31:21;26.70;68.60
32187;DHT22;18686;53.084;8.872;2023-06-22T15:33:53;26.60;71.10
32187;DHT22;18686;53.084;8.872;2023-06-22T15:36:21;26.50;72.10
32187;DHT22;18686;53.084;8.872;2023-06-22T15:38:49;26.40;73.70
32187;DHT22;18686;53.084;8.872;2023-06-22T15:41:18;26.40;74.70
32187;DHT22;18686;53.084;8.872;2023-06-22T15:43:47;26.30;75.40